createdAt,value
2018-09-29T00:00:07.962Z,6.50
2018-09-29T00:05:14.050Z,6.40
2018-09-29T00:10:21.346Z,6.20
2018-09-29T00:15:25.143Z,6.20
2018-09-29T00:20:33.857Z,6.20
2018-09-29T00:25:38.871Z,6.20
2018-09-29T00:30:46.260Z,6.20
2018-09-29T00:35:49.947Z,6.20
2018-09-29T00:40:56.287Z,6.10
2018-09-29T00:46:00.208Z,6.00
2018-09-29T00:51:05.785Z,5.90
2018-09-29T00:56:09.510Z,5.80
2018-09-29T01:01:13.151Z,5.70
2018-09-29T01:06:20.596Z,5.60
2018-09-29T01:11:24.389Z,5.70
2018-09-29T01:16:28.866Z,5.60
2018-09-29T01:21:32.725Z,5.50
2018-09-29T01:26:36.441Z,5.40
2018-09-29T01:31:41.575Z,5.50
2018-09-29T01:36:45.464Z,5.40
2018-09-29T01:41:50.044Z,5.50
2018-09-29T01:46:53.660Z,5.50
2018-09-29T01:51:57.384Z,5.40
2018-09-29T01:57:02.072Z,5.20
2018-09-29T02:02:05.798Z,5.00
2018-09-29T02:07:09.579Z,4.90
2018-09-29T02:12:13.388Z,5.20
2018-09-29T02:17:17.161Z,5.50
2018-09-29T02:22:20.776Z,5.40
2018-09-29T02:27:24.492Z,5.20
2018-09-29T02:32:28.692Z,5.10
2018-09-29T02:37:33.458Z,4.90
2018-09-29T02:42:37.313Z,4.80
2018-09-29T02:47:41.080Z,4.70
2018-09-29T02:52:44.797Z,4.50
2018-09-29T02:57:48.520Z,4.40
2018-09-29T03:02:53.197Z,4.60
2018-09-29T03:07:56.821Z,4.70
2018-09-29T03:13:00.448Z,4.90
2018-09-29T03:18:04.167Z,4.70
2018-09-29T03:23:07.851Z,4.60
2018-09-29T03:28:11.675Z,4.50
2018-09-29T03:33:15.271Z,4.30
2018-09-29T03:38:18.994Z,4.40
2018-09-29T03:43:22.693Z,4.50
2018-09-29T03:48:26.316Z,4.20
2018-09-29T03:53:30.489Z,4.00
2018-09-29T03:58:34.204Z,3.80
2018-09-29T04:03:38.126Z,3.90
2018-09-29T04:14:14.107Z,3.90
2018-09-29T04:19:22.241Z,3.70
2018-09-29T04:24:25.939Z,3.90
2018-09-29T04:29:29.465Z,3.90
2018-09-29T04:34:33.034Z,3.70
2018-09-29T04:39:36.783Z,3.80
2018-09-29T04:44:42.465Z,3.50
2018-09-29T04:49:46.154Z,3.40
2018-09-29T04:54:49.739Z,3.20
2018-09-29T04:59:53.341Z,3.20
2018-09-29T05:05:01.845Z,3.40
2018-09-29T05:10:05.430Z,3.40
2018-09-29T05:15:09.281Z,3.40
2018-09-29T05:20:12.910Z,3.40
2018-09-29T05:25:17.551Z,3.50
2018-09-29T05:30:21.482Z,3.30
2018-09-29T05:35:26.115Z,3.30
2018-09-29T05:40:29.716Z,3.20
2018-09-29T05:45:33.524Z,3.10
2018-09-29T05:50:37.230Z,3.00
2018-09-29T05:55:40.945Z,3.10
2018-09-29T06:00:46.549Z,3.40
2018-09-29T06:05:50.201Z,3.60
2018-09-29T06:10:53.886Z,4.00
2018-09-29T06:15:58.587Z,3.70
2018-09-29T06:21:02.494Z,3.90
2018-09-29T06:26:06.123Z,3.80
2018-09-29T06:31:09.871Z,4.10
2018-09-29T06:36:13.478Z,4.10
2018-09-29T06:41:18.230Z,4.60
2018-09-29T06:46:25.734Z,4.60
2018-09-29T06:51:29.427Z,5.10
2018-09-29T06:56:34.044Z,5.10
2018-09-29T07:01:37.754Z,5.40
2018-09-29T07:06:47.250Z,5.70
2018-09-29T07:11:50.883Z,5.80
2018-09-29T07:16:56.606Z,6.10
2018-09-29T07:22:00.229Z,6.40
2018-09-29T07:27:03.935Z,6.70
2018-09-29T07:32:13.065Z,6.90
2018-09-29T07:37:20.941Z,7.10
2018-09-29T07:42:28.196Z,7.40
2018-09-29T07:47:31.937Z,7.70
2018-09-29T07:52:35.694Z,8.40
2018-09-29T07:57:39.270Z,8.40
2018-09-29T08:02:42.995Z,8.70
2018-09-29T08:07:46.839Z,9.00
2018-09-29T08:12:50.463Z,9.10
2018-09-29T08:17:54.170Z,11.10
2018-09-29T08:22:57.875Z,12.30
2018-09-29T08:28:02.480Z,13.40
2018-09-29T08:33:10.826Z,13.90
2018-09-29T08:38:14.397Z,13.80
2018-09-29T08:43:18.004Z,14.10
2018-09-29T08:48:21.902Z,13.90
2018-09-29T08:53:27.647Z,14.60
2018-09-29T08:58:31.700Z,13.50
2018-09-29T09:03:35.696Z,13.60
2018-09-29T09:08:39.355Z,14.10
2018-09-29T09:13:46.909Z,15.50
2018-09-29T09:18:50.493Z,14.00
2018-09-29T09:23:54.236Z,14.50
2018-09-29T09:28:57.954Z,16.30
2018-09-29T09:34:01.761Z,14.90
2018-09-29T09:39:11.563Z,16.90
2018-09-29T09:44:16.070Z,17.50
2018-09-29T09:49:19.886Z,17.70
2018-09-29T09:54:23.645Z,18.10
2018-09-29T09:59:27.202Z,17.20
2018-09-29T10:04:30.783Z,18.50
2018-09-29T10:09:35.638Z,18.40
2018-09-29T10:14:39.447Z,18.90
2018-09-29T10:19:43.283Z,18.60
2018-09-29T10:24:48.011Z,18.10
2018-09-29T10:29:51.850Z,18.00
2018-09-29T10:34:55.479Z,19.40
2018-09-29T10:40:00.094Z,18.20
2018-09-29T10:45:04.707Z,17.10
2018-09-29T10:50:08.507Z,17.10
2018-09-29T10:55:12.174Z,19.20
2018-09-29T11:00:16.009Z,17.40
2018-09-29T11:05:20.045Z,17.10
2018-09-29T11:15:29.404Z,15.80
2018-09-29T11:20:34.192Z,14.90
2018-09-29T11:25:38.804Z,14.90
2018-09-29T11:30:42.407Z,14.70
2018-09-29T11:35:46.373Z,14.90
2018-09-29T11:40:50.047Z,14.90
2018-09-29T11:45:53.726Z,14.90
2018-09-29T11:50:58.530Z,14.80
2018-09-29T11:56:03.261Z,15.00
2018-09-29T12:01:08.563Z,14.90
2018-09-29T12:06:14.239Z,14.90
2018-09-29T12:11:18.086Z,14.80
2018-09-29T12:16:21.734Z,14.90
2018-09-29T12:21:25.349Z,15.20
2018-09-29T12:26:29.016Z,15.10
2018-09-29T12:31:32.533Z,14.90
2018-09-29T12:36:36.217Z,14.90
2018-09-29T12:41:40.174Z,15.00
2018-09-29T12:46:43.843Z,15.00
2018-09-29T12:51:47.574Z,14.80
2018-09-29T12:56:51.202Z,14.90
2018-09-29T13:01:56.043Z,14.80
2018-09-29T13:06:59.623Z,14.80
2018-09-29T13:12:03.306Z,14.90
2018-09-29T13:17:06.938Z,14.90
2018-09-29T13:22:10.535Z,14.80
2018-09-29T13:27:14.066Z,14.80
2018-09-29T13:32:17.678Z,15.00
2018-09-29T13:37:21.306Z,14.90
2018-09-29T13:42:24.910Z,14.80
2018-09-29T13:47:28.474Z,14.80
2018-09-29T13:52:32.174Z,14.90
2018-09-29T13:57:35.735Z,14.80
2018-09-29T14:02:39.557Z,14.90
2018-09-29T14:07:43.178Z,15.10
2018-09-29T14:12:46.878Z,15.00
2018-09-29T14:17:50.574Z,15.00
2018-09-29T14:22:54.107Z,14.80
2018-09-29T14:27:57.964Z,14.80
2018-09-29T14:33:01.580Z,14.90
2018-09-29T14:38:05.289Z,14.80
2018-09-29T14:43:08.998Z,14.80
2018-09-29T14:48:12.559Z,14.90
2018-09-29T14:53:16.162Z,14.90
2018-09-29T14:58:19.799Z,14.90
2018-09-29T15:03:23.457Z,14.80
2018-09-29T15:08:27.148Z,14.80
2018-09-29T15:13:30.726Z,14.70
2018-09-29T15:18:34.382Z,14.80
2018-09-29T15:23:37.936Z,14.90
2018-09-29T15:28:54.570Z,15.00
2018-09-29T15:33:58.157Z,14.70
2018-09-29T15:39:01.814Z,14.70
2018-09-29T15:44:05.367Z,14.70
2018-09-29T15:49:09.234Z,14.70
2018-09-29T15:54:12.963Z,14.70
2018-09-29T15:59:16.559Z,14.70
2018-09-29T16:04:20.324Z,14.60
2018-09-29T16:09:23.989Z,14.40
2018-09-29T16:14:27.674Z,14.30
2018-09-29T16:19:31.278Z,14.40
2018-09-29T16:24:34.906Z,14.20
2018-09-29T16:29:38.593Z,14.20
2018-09-29T16:34:42.157Z,14.10
2018-09-29T16:39:45.783Z,14.00
2018-09-29T16:44:49.382Z,13.90
2018-09-29T16:49:52.978Z,13.70
2018-09-29T16:54:57.626Z,13.60
2018-09-29T17:00:01.310Z,13.50
2018-09-29T17:05:05.042Z,13.40
2018-09-29T17:10:08.615Z,13.10
2018-09-29T17:15:12.174Z,13.00
2018-09-29T17:20:15.911Z,12.70
2018-09-29T17:25:19.480Z,12.20
2018-09-29T17:30:23.058Z,11.80
2018-09-29T17:35:26.722Z,11.60
2018-09-29T17:40:30.306Z,11.40
2018-09-29T17:45:34.909Z,11.10
2018-09-29T17:50:39.948Z,10.70
2018-09-29T17:55:43.737Z,10.50
2018-09-29T18:00:47.338Z,10.40
2018-09-29T18:05:50.992Z,10.10
2018-09-29T18:10:54.730Z,10.00
2018-09-29T18:15:58.574Z,10.00
2018-09-29T18:21:02.286Z,10.00
2018-09-29T18:26:08.314Z,9.80
2018-09-29T18:31:12.382Z,9.60
2018-09-29T18:36:16.239Z,9.50
2018-09-29T18:41:20.947Z,9.30
2018-09-29T18:46:24.507Z,9.20
2018-09-29T18:51:28.613Z,9.00
2018-09-29T18:56:33.099Z,8.90
2018-09-29T19:01:36.741Z,9.00
2018-09-29T19:06:40.416Z,8.80
2018-09-29T19:11:45.708Z,8.50
2018-09-29T19:16:49.412Z,8.60
2018-09-29T19:21:55.175Z,8.50
2018-09-29T19:26:58.891Z,8.60
2018-09-29T19:32:04.820Z,8.40
2018-09-29T19:37:08.452Z,8.20
2018-09-29T19:42:12.546Z,8.10
2018-09-29T19:47:16.261Z,7.90
2018-09-29T19:52:19.859Z,7.80
2018-09-29T19:57:23.614Z,7.70
2018-09-29T20:02:28.870Z,7.60
2018-09-29T20:07:32.514Z,7.60
2018-09-29T20:12:36.141Z,7.80
2018-09-29T20:17:39.830Z,7.90
2018-09-29T20:22:43.702Z,7.70
2018-09-29T20:27:49.377Z,8.10
2018-09-29T20:32:53.479Z,7.20
2018-09-29T20:37:57.026Z,7.40
2018-09-29T20:43:02.885Z,7.80
2018-09-29T20:48:06.490Z,7.20
2018-09-29T20:53:10.094Z,7.10
2018-09-29T20:58:13.801Z,7.00
2018-09-29T21:03:18.362Z,7.10
2018-09-29T21:08:22.791Z,7.10
2018-09-29T21:13:26.729Z,6.80
2018-09-29T21:18:32.371Z,6.70
2018-09-29T21:23:36.207Z,6.60
2018-09-29T21:28:40.028Z,6.60
2018-09-29T21:33:43.780Z,6.60
2018-09-29T21:38:47.448Z,6.40
2018-09-29T21:43:51.265Z,6.30
2018-09-29T21:48:54.963Z,6.40
2018-09-29T21:54:00.051Z,6.40
2018-09-29T21:59:07.202Z,6.20
2018-09-29T22:04:11.222Z,6.10
2018-09-29T22:09:21.255Z,6.10
2018-09-29T22:14:25.215Z,6.00
2018-09-29T22:19:30.063Z,5.90
2018-09-29T22:24:34.617Z,5.80
2018-09-29T22:29:38.260Z,5.80
2018-09-29T22:34:42.213Z,5.60
2018-09-29T22:39:46.321Z,5.60
2018-09-29T22:44:50.757Z,5.60
2018-09-29T22:49:54.924Z,5.90
2018-09-29T22:54:58.926Z,6.10
2018-09-29T23:00:02.728Z,6.00
2018-09-29T23:05:07.454Z,5.60
2018-09-29T23:10:12.197Z,5.50
2018-09-29T23:15:15.873Z,5.30
2018-09-29T23:20:19.715Z,5.20
2018-09-29T23:25:24.338Z,5.40
2018-09-29T23:30:28.446Z,5.10
2018-09-29T23:35:33.251Z,4.80
2018-09-29T23:40:37.028Z,4.80
2018-09-29T23:45:41.504Z,4.90
2018-09-29T23:50:45.239Z,5.00
2018-09-29T23:55:50.062Z,5.20
